createdAt,value
2023-01-11T00:00:51.728Z,1.16
2023-01-11T00:01:51.876Z,1.11
2023-01-11T00:02:51.726Z,1.05
2023-01-11T00:03:51.729Z,1.08
2023-01-11T00:04:51.957Z,1.02
2023-01-11T00:05:51.740Z,0.94
2023-01-11T00:06:51.802Z,1.02
2023-01-11T00:07:51.789Z,0.86
2023-01-11T00:08:51.754Z,0.91
2023-01-11T00:09:51.760Z,0.93
2023-01-11T00:10:51.769Z,0.93
2023-01-11T00:11:51.764Z,0.90
2023-01-11T00:12:51.771Z,0.84
2023-01-11T00:13:51.793Z,0.87
2023-01-11T00:14:51.783Z,0.87
2023-01-11T00:15:51.835Z,0.90
2023-01-11T00:16:51.799Z,0.83
2023-01-11T00:17:51.793Z,0.78
2023-01-11T00:18:51.822Z,0.84
2023-01-11T00:19:51.827Z,0.80
2023-01-11T00:20:51.816Z,0.90
2023-01-11T00:21:51.817Z,0.80
2023-01-11T00:22:51.850Z,0.83
2023-01-11T00:23:51.824Z,0.84
2023-01-11T00:24:51.833Z,0.83
2023-01-11T00:25:51.833Z,0.83
2023-01-11T00:26:51.947Z,0.87
2023-01-11T00:27:51.850Z,0.90
2023-01-11T00:28:51.854Z,0.80
2023-01-11T00:29:51.873Z,0.97
2023-01-11T00:30:51.871Z,0.94
2023-01-11T00:31:51.872Z,1.08
2023-01-11T00:32:51.869Z,1.20
2023-01-11T00:33:51.872Z,1.32
2023-01-11T00:34:51.882Z,1.32
2023-01-11T00:35:51.877Z,1.40
2023-01-11T00:36:51.889Z,1.27
2023-01-11T00:37:51.889Z,1.23
2023-01-11T00:38:51.950Z,1.20
2023-01-11T00:39:51.905Z,1.12
2023-01-11T00:40:51.919Z,1.16
2023-01-11T00:41:51.908Z,1.14
2023-01-11T00:42:51.924Z,1.16
2023-01-11T00:43:51.921Z,1.22
2023-01-11T00:44:51.925Z,1.14
2023-01-11T00:45:52.099Z,1.12
2023-01-11T00:46:51.938Z,1.08
2023-01-11T00:47:51.951Z,1.15
2023-01-11T00:48:51.950Z,1.08
2023-01-11T00:49:51.950Z,1.08
2023-01-11T00:50:51.964Z,1.05
2023-01-11T00:51:51.957Z,1.04
2023-01-11T00:52:51.973Z,0.98
2023-01-11T00:53:51.966Z,0.98
2023-01-11T00:54:51.979Z,1.09
2023-01-11T00:55:51.984Z,1.06
2023-01-11T00:56:51.983Z,1.05
2023-01-11T00:57:51.996Z,0.98
2023-01-11T00:58:51.994Z,1.09
2023-01-11T00:59:51.998Z,0.98
2023-01-11T01:00:52.105Z,0.98
2023-01-11T01:01:52.029Z,0.98
2023-01-11T01:02:52.113Z,1.00
2023-01-11T01:03:52.012Z,0.93
2023-01-11T01:04:52.024Z,0.97
2023-01-11T01:05:52.023Z,0.87
2023-01-11T01:06:52.046Z,0.87
2023-01-11T01:07:52.051Z,0.87
2023-01-11T01:08:52.050Z,0.84
2023-01-11T01:09:52.145Z,0.94
2023-01-11T01:10:52.054Z,1.02
2023-01-11T01:11:52.051Z,0.96
2023-01-11T01:12:52.059Z,1.05
2023-01-11T01:13:52.070Z,1.06
2023-01-11T01:14:52.074Z,1.05
2023-01-11T01:15:52.142Z,1.11
2023-01-11T01:16:52.092Z,1.12
2023-01-11T01:17:52.103Z,1.12
2023-01-11T01:18:52.099Z,1.12
2023-01-11T01:19:52.090Z,1.11
2023-01-11T01:20:52.096Z,1.14
2023-01-11T01:21:52.100Z,1.16
2023-01-11T01:22:52.112Z,1.09
2023-01-11T01:23:52.107Z,1.15
2023-01-11T01:24:52.142Z,1.06
2023-01-11T01:25:52.158Z,1.00
2023-01-11T01:26:52.135Z,1.06
2023-01-11T01:27:52.126Z,1.05
2023-01-11T01:28:52.151Z,1.02
2023-01-11T01:29:52.134Z,1.00
2023-01-11T01:30:52.250Z,1.06
2023-01-11T01:31:52.145Z,0.97
2023-01-11T01:32:52.159Z,1.00
2023-01-11T01:33:52.173Z,1.06
2023-01-11T01:34:52.162Z,1.09
2023-01-11T01:35:52.165Z,1.06
2023-01-11T01:36:52.178Z,1.12
2023-01-11T01:37:52.170Z,1.14
2023-01-11T01:38:52.182Z,1.09
2023-01-11T01:39:52.181Z,1.12
2023-01-11T01:40:52.290Z,1.04
2023-01-11T01:41:52.189Z,1.00
2023-01-11T01:42:52.196Z,1.08
2023-01-11T01:43:52.204Z,1.11
2023-01-11T01:44:52.204Z,1.05
2023-01-11T01:45:52.212Z,1.12
2023-01-11T01:46:52.216Z,1.09
2023-01-11T01:47:52.220Z,1.12
2023-01-11T01:48:52.223Z,1.11
2023-01-11T01:49:52.248Z,1.09
2023-01-11T01:50:52.237Z,0.97
2023-01-11T01:51:52.246Z,1.05
2023-01-11T01:52:52.244Z,1.05
2023-01-11T01:53:52.254Z,1.06
2023-01-11T01:54:52.255Z,1.00
2023-01-11T01:55:52.263Z,1.08
2023-01-11T01:56:52.266Z,1.00
2023-01-11T01:57:52.267Z,1.00
2023-01-11T01:58:52.267Z,1.06
2023-01-11T01:59:52.280Z,1.04
2023-01-11T02:00:52.287Z,1.09
2023-01-11T02:01:52.408Z,0.98
2023-01-11T02:02:52.386Z,1.05
2023-01-11T02:03:52.316Z,1.00
2023-01-11T02:04:52.297Z,1.00
2023-01-11T02:05:52.325Z,1.12
2023-01-11T02:06:52.391Z,1.00
2023-01-11T02:07:52.310Z,1.12
2023-01-11T02:08:52.315Z,1.20
2023-01-11T02:09:52.329Z,1.12
2023-01-11T02:10:52.333Z,1.15
2023-01-11T02:11:52.358Z,1.12
2023-01-11T02:12:52.331Z,1.20
2023-01-11T02:13:52.343Z,1.14
2023-01-11T02:14:52.343Z,1.16
2023-01-11T02:15:52.377Z,1.20
2023-01-11T02:16:52.350Z,1.16
2023-01-11T02:17:52.359Z,1.14
2023-01-11T02:18:52.367Z,1.08
2023-01-11T02:19:52.369Z,1.12
2023-01-11T02:20:52.370Z,1.14
2023-01-11T02:21:52.400Z,1.16
2023-01-11T02:22:52.377Z,1.15
2023-01-11T02:23:52.415Z,1.24
2023-01-11T02:24:52.388Z,1.06
2023-01-11T02:25:52.399Z,1.22
2023-01-11T02:26:52.403Z,1.20
2023-01-11T02:27:52.405Z,1.20
2023-01-11T02:28:52.411Z,1.20
2023-01-11T02:29:52.414Z,1.26
2023-01-11T02:30:52.441Z,1.27
2023-01-11T02:31:52.440Z,1.22
2023-01-11T02:32:52.437Z,1.29
2023-01-11T02:33:52.437Z,1.30
2023-01-11T02:34:52.440Z,1.24
2023-01-11T02:35:52.446Z,1.20
2023-01-11T02:36:52.547Z,1.26
2023-01-11T02:37:52.474Z,1.27
2023-01-11T02:38:52.455Z,1.20
2023-01-11T02:39:52.463Z,1.29
2023-01-11T02:40:52.465Z,1.24
2023-01-11T02:41:52.474Z,1.27
2023-01-11T02:42:52.474Z,1.26
2023-01-11T02:43:52.485Z,1.23
2023-01-11T02:44:52.488Z,1.32
2023-01-11T02:45:52.508Z,1.26
2023-01-11T02:46:52.529Z,1.29
2023-01-11T02:47:52.499Z,1.37
2023-01-11T02:48:52.506Z,1.27
2023-01-11T02:49:52.514Z,1.34
2023-01-11T02:50:52.519Z,1.34
2023-01-11T02:51:52.522Z,1.27
2023-01-11T02:52:52.530Z,1.34
2023-01-11T02:53:52.557Z,1.34
2023-01-11T02:54:52.545Z,1.34
2023-01-11T02:55:52.538Z,1.36
2023-01-11T02:56:52.594Z,1.36
2023-01-11T02:57:52.552Z,1.37
2023-01-11T02:58:52.553Z,1.37
2023-01-11T02:59:52.559Z,1.40
2023-01-11T03:00:52.565Z,1.32
2023-01-11T03:01:52.685Z,1.42
2023-01-11T03:02:52.623Z,1.42
2023-01-11T03:03:52.601Z,1.34
2023-01-11T03:04:52.588Z,1.34
2023-01-11T03:05:52.594Z,1.42
2023-01-11T03:06:52.744Z,1.41
2023-01-11T03:07:52.600Z,1.42
2023-01-11T03:08:52.603Z,1.42
2023-01-11T03:09:52.642Z,1.41
2023-01-11T03:10:52.617Z,1.36
2023-01-11T03:11:52.625Z,1.37
2023-01-11T03:12:52.673Z,1.36
2023-01-11T03:13:52.630Z,1.40
2023-01-11T03:14:52.638Z,1.36
2023-01-11T03:15:52.691Z,1.51
2023-01-11T03:16:52.646Z,1.44
2023-01-11T03:17:52.650Z,1.36
2023-01-11T03:18:52.651Z,1.51
2023-01-11T03:19:52.659Z,1.52
2023-01-11T03:20:52.663Z,1.54
2023-01-11T03:21:52.671Z,1.50
2023-01-11T03:22:52.673Z,1.50
2023-01-11T03:23:52.681Z,1.47
2023-01-11T03:24:52.700Z,1.48
2023-01-11T03:25:52.717Z,1.52
2023-01-11T03:26:52.694Z,1.50
2023-01-11T03:27:52.710Z,1.41
2023-01-11T03:28:52.701Z,1.51
2023-01-11T03:29:52.712Z,1.45
2023-01-11T03:30:52.711Z,1.52
2023-01-11T03:31:52.729Z,1.50
2023-01-11T03:32:52.722Z,1.45
2023-01-11T03:33:52.734Z,1.47
2023-01-11T03:34:52.732Z,1.42
2023-01-11T03:35:52.741Z,1.52
2023-01-11T03:36:52.742Z,1.48
2023-01-11T03:37:52.762Z,1.47
2023-01-11T03:38:52.780Z,1.51
2023-01-11T03:39:52.784Z,1.47
2023-01-11T03:40:52.765Z,1.50
2023-01-11T03:41:52.813Z,1.48
2023-01-11T03:42:52.774Z,1.50
2023-01-11T03:43:52.782Z,1.50
2023-01-11T03:44:52.783Z,1.55
2023-01-11T03:45:52.792Z,1.51
2023-01-11T03:46:52.822Z,1.51
2023-01-11T03:47:52.812Z,1.42
2023-01-11T03:48:52.810Z,1.42
2023-01-11T03:49:52.810Z,1.41
2023-01-11T03:50:52.815Z,1.47
2023-01-11T03:51:52.823Z,1.37
2023-01-11T03:52:52.824Z,1.36
2023-01-11T03:53:52.840Z,1.37
2023-01-11T03:54:52.835Z,1.36
2023-01-11T03:55:52.854Z,1.22
2023-01-11T03:56:52.843Z,1.22
2023-01-11T03:57:52.874Z,1.29
2023-01-11T03:58:52.862Z,1.24
2023-01-11T03:59:52.860Z,1.22
2023-01-11T04:00:52.908Z,1.26
2023-01-11T04:01:52.883Z,1.20
2023-01-11T04:02:52.875Z,1.30
2023-01-11T04:03:52.921Z,1.34
2023-01-11T04:04:52.885Z,1.22
2023-01-11T04:05:52.895Z,1.30
2023-01-11T04:06:52.948Z,1.27
2023-01-11T04:07:52.905Z,1.24
2023-01-11T04:08:52.910Z,1.33
2023-01-11T04:09:52.916Z,1.32
2023-01-11T04:10:52.939Z,1.33
2023-01-11T04:11:52.933Z,1.40
2023-01-11T04:12:52.925Z,1.40
2023-01-11T04:13:52.955Z,1.48
2023-01-11T04:14:52.934Z,1.34
2023-01-11T04:15:52.944Z,1.41
2023-01-11T04:16:52.951Z,1.47
2023-01-11T04:17:52.952Z,1.42
2023-01-11T04:18:52.954Z,1.42
2023-01-11T04:19:52.963Z,1.47
2023-01-11T04:20:52.961Z,1.44
2023-01-11T04:21:52.972Z,1.37
2023-01-11T04:22:53.083Z,1.33
2023-01-11T04:23:52.981Z,1.34
2023-01-11T04:24:52.984Z,1.30
2023-01-11T04:25:53.001Z,1.37
2023-01-11T04:26:52.992Z,1.36
2023-01-11T04:27:53.001Z,1.36
2023-01-11T04:28:54.358Z,1.37
2023-01-11T04:29:53.031Z,1.32
2023-01-11T04:30:53.023Z,1.34
2023-01-11T04:31:53.098Z,1.33
2023-01-11T04:32:53.032Z,1.33
2023-01-11T04:33:53.033Z,1.23
2023-01-11T04:34:53.033Z,1.32
2023-01-11T04:35:53.043Z,1.27
2023-01-11T04:36:53.044Z,1.24
2023-01-11T04:37:53.057Z,1.24
2023-01-11T04:38:53.057Z,1.22
2023-01-11T04:39:53.060Z,1.27
2023-01-11T04:40:53.066Z,1.24
2023-01-11T04:41:53.069Z,1.23
2023-01-11T04:42:53.076Z,1.42
2023-01-11T04:43:53.082Z,1.44
2023-01-11T04:44:53.116Z,1.47
2023-01-11T04:45:53.159Z,1.55
2023-01-11T04:46:53.095Z,1.69
2023-01-11T04:47:53.099Z,1.73
2023-01-11T04:48:53.103Z,1.63
2023-01-11T04:49:53.110Z,1.62
2023-01-11T04:50:53.125Z,1.63
2023-01-11T04:51:53.122Z,1.60
2023-01-11T04:52:53.127Z,1.45
2023-01-11T04:53:53.130Z,1.42
2023-01-11T04:54:53.136Z,1.40
2023-01-11T04:55:53.142Z,1.44
2023-01-11T04:56:53.141Z,1.50
2023-01-11T04:57:53.163Z,1.42
2023-01-11T04:58:53.164Z,1.51
2023-01-11T04:59:53.157Z,1.48
2023-01-11T05:00:53.248Z,1.47
2023-01-11T05:01:53.189Z,1.50
2023-01-11T05:02:53.173Z,1.42
2023-01-11T05:03:53.218Z,1.51
2023-01-11T05:04:53.184Z,1.42
2023-01-11T05:05:53.192Z,1.33
2023-01-11T05:06:53.230Z,1.42
2023-01-11T05:07:53.209Z,1.42
2023-01-11T05:08:53.202Z,1.36
2023-01-11T05:09:53.213Z,1.32
2023-01-11T05:10:53.213Z,1.27
2023-01-11T05:11:53.234Z,1.26
2023-01-11T05:12:53.219Z,1.08
2023-01-11T05:13:53.227Z,1.14
2023-01-11T05:14:53.229Z,1.18
2023-01-11T05:15:53.240Z,1.08
2023-01-11T05:16:53.245Z,1.14
2023-01-11T05:17:53.290Z,1.14
2023-01-11T05:18:53.255Z,1.14
2023-01-11T05:19:53.286Z,1.14
2023-01-11T05:20:53.259Z,1.14
2023-01-11T05:21:53.273Z,1.11
2023-01-11T05:22:53.271Z,1.14
2023-01-11T05:23:53.277Z,1.24
2023-01-11T05:24:53.277Z,1.24
2023-01-11T05:25:53.284Z,1.20
2023-01-11T05:26:53.303Z,1.26
2023-01-11T05:27:53.306Z,1.26
2023-01-11T05:28:53.298Z,1.20
2023-01-11T05:29:53.304Z,1.11
2023-01-11T05:30:53.308Z,1.20
2023-01-11T05:31:53.362Z,1.16
2023-01-11T05:32:53.325Z,1.14
2023-01-11T05:33:53.371Z,1.12
2023-01-11T05:34:53.328Z,1.06
2023-01-11T05:35:54.495Z,1.09
2023-01-11T05:36:53.336Z,1.11
2023-01-11T05:37:53.350Z,1.04
2023-01-11T05:38:53.345Z,0.98
2023-01-11T05:39:53.354Z,1.06
2023-01-11T05:40:53.356Z,0.98
2023-01-11T05:41:53.370Z,0.98
2023-01-11T05:42:53.370Z,0.98
2023-01-11T05:43:53.374Z,1.00
2023-01-11T05:44:53.384Z,0.98
2023-01-11T05:45:53.447Z,0.97
2023-01-11T05:46:53.392Z,1.00
2023-01-11T05:47:53.395Z,0.96
2023-01-11T05:48:53.394Z,1.00
2023-01-11T05:49:53.426Z,1.00
2023-01-11T05:50:53.416Z,1.05
2023-01-11T05:51:53.410Z,1.00
2023-01-11T05:52:53.423Z,1.08
2023-01-11T05:53:53.531Z,1.04
2023-01-11T05:54:53.424Z,1.05
2023-01-11T05:55:53.435Z,1.02
2023-01-11T05:56:53.434Z,0.94
2023-01-11T05:57:53.449Z,0.98
2023-01-11T05:58:53.441Z,1.02
2023-01-11T05:59:53.460Z,1.08
2023-01-11T06:00:53.486Z,0.98
2023-01-11T06:01:53.503Z,0.94
2023-01-11T06:02:53.616Z,1.00
2023-01-11T06:03:53.479Z,1.00
2023-01-11T06:04:55.407Z,0.97
2023-01-11T06:05:53.503Z,0.98
2023-01-11T06:06:53.673Z,0.96
2023-01-11T06:07:53.485Z,1.05
2023-01-11T06:08:53.508Z,1.11
2023-01-11T06:09:53.510Z,1.23
2023-01-11T06:10:53.503Z,1.27
2023-01-11T06:11:53.511Z,1.23
2023-01-11T06:12:53.516Z,1.24
2023-01-11T06:13:53.545Z,1.26
2023-01-11T06:14:53.526Z,1.29
2023-01-11T06:15:53.536Z,1.36
2023-01-11T06:16:53.633Z,1.34
2023-01-11T06:17:53.551Z,1.34
2023-01-11T06:18:53.540Z,1.37
2023-01-11T06:19:53.544Z,1.34
2023-01-11T06:20:53.556Z,1.42
2023-01-11T06:21:53.576Z,1.33
2023-01-11T06:22:53.569Z,1.44
2023-01-11T06:23:53.564Z,1.36
2023-01-11T06:24:53.574Z,1.37
2023-01-11T06:25:53.591Z,1.34
2023-01-11T06:26:53.599Z,1.40
2023-01-11T06:27:53.585Z,1.37
2023-01-11T06:28:53.597Z,1.36
2023-01-11T06:29:53.645Z,1.34
2023-01-11T06:30:53.649Z,1.34
2023-01-11T06:31:53.609Z,1.27
2023-01-11T06:32:53.613Z,1.33
2023-01-11T06:33:53.614Z,1.34
2023-01-11T06:34:53.623Z,1.37
2023-01-11T06:35:53.626Z,1.48
2023-01-11T06:36:53.637Z,1.40
2023-01-11T06:37:53.747Z,1.40
2023-01-11T06:38:53.647Z,1.44
2023-01-11T06:39:53.643Z,1.42
2023-01-11T06:40:53.657Z,1.40
2023-01-11T06:41:53.652Z,1.37
2023-01-11T06:42:53.666Z,1.50
2023-01-11T06:43:53.662Z,1.58
2023-01-11T06:44:53.671Z,1.65
2023-01-11T06:45:53.721Z,1.70
2023-01-11T06:46:53.685Z,1.70
2023-01-11T06:47:53.681Z,1.86
2023-01-11T06:48:53.702Z,1.91
2023-01-11T06:49:53.695Z,2.12
2023-01-11T06:50:53.707Z,2.10
2023-01-11T06:51:53.702Z,2.14
2023-01-11T06:52:53.713Z,2.09
2023-01-11T06:53:53.729Z,2.05
2023-01-11T06:54:53.720Z,2.00
2023-01-11T06:55:53.723Z,2.18
2023-01-11T06:56:53.729Z,2.17
2023-01-11T06:57:53.738Z,2.17
2023-01-11T06:58:53.749Z,2.05
2023-01-11T06:59:53.738Z,1.95
2023-01-11T07:00:53.829Z,1.95
2023-01-11T07:01:53.752Z,1.88
2023-01-11T07:02:53.781Z,1.83
2023-01-11T07:03:53.766Z,1.76
2023-01-11T07:04:53.835Z,1.69
2023-01-11T07:05:53.779Z,1.66
2023-01-11T07:06:53.800Z,1.62
2023-01-11T07:07:53.780Z,1.58
2023-01-11T07:08:53.895Z,1.51
2023-01-11T07:09:53.812Z,1.51
2023-01-11T07:10:53.808Z,1.45
2023-01-11T07:11:53.801Z,1.47
2023-01-11T07:12:53.816Z,1.37
2023-01-11T07:13:53.817Z,1.41
2023-01-11T07:14:53.835Z,1.42
2023-01-11T07:15:53.955Z,1.42
2023-01-11T07:16:53.826Z,1.42
2023-01-11T07:17:53.843Z,1.37
2023-01-11T07:18:53.834Z,1.37
2023-01-11T07:19:53.850Z,1.48
2023-01-11T07:20:53.852Z,1.44
2023-01-11T07:21:53.852Z,1.48
2023-01-11T07:22:53.859Z,1.59
2023-01-11T07:23:53.856Z,1.63
2023-01-11T07:24:53.865Z,1.65
2023-01-11T07:25:53.928Z,1.69
2023-01-11T07:26:53.897Z,1.60
2023-01-11T07:27:53.878Z,1.66
2023-01-11T07:28:53.900Z,1.63
2023-01-11T07:29:53.884Z,1.66
2023-01-11T07:30:58.795Z,1.65
2023-01-11T07:31:53.894Z,1.70
2023-01-11T07:32:53.907Z,1.66
2023-01-11T07:33:53.906Z,1.87
2023-01-11T07:34:53.915Z,1.93
2023-01-11T07:35:53.952Z,1.95
2023-01-11T07:36:53.930Z,2.02
2023-01-11T07:37:53.928Z,1.93
2023-01-11T07:38:53.936Z,2.07
2023-01-11T07:39:53.936Z,2.07
2023-01-11T07:40:53.968Z,2.03
2023-01-11T07:41:53.969Z,2.00
2023-01-11T07:42:53.956Z,2.06
2023-01-11T07:43:53.957Z,2.09
2023-01-11T07:44:53.967Z,2.09
2023-01-11T07:45:54.220Z,2.09
2023-01-11T07:46:54.220Z,2.09
2023-01-11T07:47:53.988Z,2.18
2023-01-11T07:48:53.993Z,2.09
2023-01-11T07:49:54.088Z,2.14
2023-01-11T07:50:54.147Z,2.27
2023-01-11T07:51:54.005Z,2.25
2023-01-11T07:52:54.011Z,2.30
2023-01-11T07:53:54.008Z,2.28
2023-01-11T07:54:54.019Z,2.31
2023-01-11T07:55:54.019Z,2.30
2023-01-11T07:56:54.032Z,2.28
2023-01-11T07:57:54.055Z,2.28
2023-01-11T07:58:54.039Z,2.27
2023-01-11T07:59:54.054Z,2.28
2023-01-11T08:00:54.052Z,2.25
2023-01-11T08:01:54.060Z,2.49
2023-01-11T08:02:54.170Z,2.48
2023-01-11T08:03:54.138Z,2.46
2023-01-11T08:04:54.072Z,2.52
2023-01-11T08:05:54.084Z,2.46
2023-01-11T08:06:54.092Z,2.59
2023-01-11T08:07:54.088Z,2.56
2023-01-11T08:08:54.092Z,2.43
2023-01-11T08:09:54.099Z,2.59
2023-01-11T08:10:54.103Z,2.56
2023-01-11T08:11:54.108Z,2.52
2023-01-11T08:12:54.116Z,2.57
2023-01-11T08:13:54.168Z,2.63
2023-01-11T08:14:54.133Z,2.66
2023-01-11T08:15:54.167Z,2.75
2023-01-11T08:16:54.136Z,2.79
2023-01-11T08:17:54.138Z,2.71
2023-01-11T08:18:54.154Z,2.84
2023-01-11T08:19:54.158Z,2.87
2023-01-11T08:20:54.168Z,2.87
2023-01-11T08:21:54.164Z,2.81
2023-01-11T08:22:54.191Z,2.78
2023-01-11T08:23:54.175Z,2.81
2023-01-11T08:24:54.183Z,2.82
2023-01-11T08:25:54.182Z,2.82
2023-01-11T08:26:54.268Z,2.95
2023-01-11T08:27:54.213Z,2.78
2023-01-11T08:28:54.206Z,2.89
2023-01-11T08:29:54.225Z,2.89
2023-01-11T08:30:54.311Z,2.90
2023-01-11T08:31:54.221Z,2.96
2023-01-11T08:32:54.228Z,2.93
2023-01-11T08:33:54.239Z,2.99
2023-01-11T08:34:54.252Z,3.03
2023-01-11T08:35:54.238Z,3.05
2023-01-11T08:36:54.269Z,2.97
2023-01-11T08:37:54.258Z,3.06
2023-01-11T08:38:54.269Z,3.05
2023-01-11T08:39:54.274Z,3.02
2023-01-11T08:40:54.276Z,3.00
2023-01-11T08:41:54.276Z,3.11
2023-01-11T08:42:54.295Z,3.15
2023-01-11T08:43:54.290Z,3.18
2023-01-11T08:44:54.302Z,3.21
2023-01-11T08:45:54.332Z,3.21
2023-01-11T08:46:54.314Z,3.42
2023-01-11T08:47:54.321Z,3.40
2023-01-11T08:48:54.328Z,3.48
2023-01-11T08:49:54.324Z,3.60
2023-01-11T08:50:54.333Z,3.57
2023-01-11T08:51:54.342Z,3.68
2023-01-11T08:52:54.352Z,3.62
2023-01-11T08:53:54.349Z,3.69
2023-01-11T08:54:54.369Z,3.72
2023-01-11T08:55:54.363Z,3.70
2023-01-11T08:56:54.376Z,3.83
2023-01-11T08:57:54.375Z,3.94
2023-01-11T08:58:54.383Z,4.02
2023-01-11T08:59:54.386Z,4.14
2023-01-11T09:00:54.409Z,4.23
2023-01-11T09:01:54.493Z,4.32
2023-01-11T09:02:54.450Z,4.20
2023-01-11T09:03:54.414Z,4.33
2023-01-11T09:04:54.425Z,4.33
2023-01-11T09:05:54.424Z,4.33
2023-01-11T09:06:54.478Z,4.34
2023-01-11T09:07:54.443Z,4.30
2023-01-11T09:08:54.464Z,4.29
2023-01-11T09:09:54.458Z,4.26
2023-01-11T09:10:54.465Z,4.12
2023-01-11T09:11:54.475Z,4.15
2023-01-11T09:12:54.481Z,4.05
2023-01-11T09:13:54.481Z,3.96
2023-01-11T09:14:54.537Z,3.98
2023-01-11T09:15:54.513Z,4.04
2023-01-11T09:16:54.520Z,4.00
2023-01-11T09:17:54.533Z,3.94
2023-01-11T09:18:54.514Z,4.08
2023-01-11T09:19:54.528Z,4.12
2023-01-11T09:20:54.532Z,4.22
2023-01-11T09:21:54.537Z,4.24
2023-01-11T09:22:54.548Z,4.30
2023-01-11T09:23:54.664Z,4.26
2023-01-11T09:24:54.558Z,4.30
2023-01-11T09:25:54.559Z,4.37
2023-01-11T09:26:54.627Z,4.32
2023-01-11T09:27:54.572Z,4.37
2023-01-11T09:28:54.609Z,4.33
2023-01-11T09:29:54.587Z,4.42
2023-01-11T09:30:54.631Z,4.42
2023-01-11T09:31:54.601Z,4.42
2023-01-11T09:32:54.620Z,4.44
2023-01-11T09:33:54.648Z,4.47
2023-01-11T09:34:54.628Z,4.47
2023-01-11T09:35:54.632Z,4.51
2023-01-11T09:36:54.639Z,4.44
2023-01-11T09:37:54.646Z,4.48
2023-01-11T09:38:54.660Z,4.44
2023-01-11T09:39:54.663Z,4.47
2023-01-11T09:40:54.671Z,4.37
2023-01-11T09:41:54.674Z,4.34
2023-01-11T09:42:54.685Z,4.45
2023-01-11T09:43:54.685Z,4.47
2023-01-11T09:44:54.707Z,4.30
2023-01-11T09:45:54.716Z,4.47
2023-01-11T09:46:54.765Z,4.42
2023-01-11T09:47:54.721Z,4.33
2023-01-11T09:48:54.727Z,4.41
2023-01-11T09:49:54.866Z,4.44
2023-01-11T09:50:54.821Z,4.34
2023-01-11T09:51:54.745Z,4.44
2023-01-11T09:52:54.757Z,4.47
2023-01-11T09:53:54.760Z,4.36
2023-01-11T09:54:54.771Z,4.29
2023-01-11T09:55:54.780Z,4.33
2023-01-11T09:56:54.812Z,4.36
2023-01-11T09:57:54.873Z,4.40
2023-01-11T09:58:54.797Z,4.47
2023-01-11T09:59:54.802Z,4.36
2023-01-11T10:00:54.888Z,4.42
2023-01-11T10:01:54.841Z,4.40
2023-01-11T10:02:54.835Z,4.29
2023-01-11T10:03:54.833Z,4.42
2023-01-11T10:04:54.866Z,4.32
2023-01-11T10:05:54.941Z,4.33
2023-01-11T10:06:54.856Z,4.42
2023-01-11T10:18:26.028Z,4.45
2023-01-11T10:18:29.554Z,4.42
2023-01-11T10:18:32.089Z,4.40
2023-01-11T10:18:40.560Z,4.40
2023-01-11T10:19:19.651Z,4.37
2023-01-11T10:19:54.976Z,4.41
2023-01-11T10:20:54.960Z,4.45
2023-01-11T10:21:54.983Z,4.50
2023-01-11T10:22:54.970Z,4.51
2023-01-11T10:23:54.994Z,4.62
2023-01-11T10:24:54.988Z,4.70
2023-01-11T10:25:55.011Z,4.65
2023-01-11T10:26:55.049Z,4.73
2023-01-11T10:27:55.023Z,4.72
2023-01-11T10:28:55.031Z,4.60
2023-01-11T10:29:55.044Z,4.72
2023-01-11T10:30:55.029Z,4.63
2023-01-11T10:31:55.050Z,4.66
2023-01-11T10:32:55.046Z,4.70
2023-01-11T10:33:55.056Z,4.67
2023-01-11T10:34:55.071Z,4.66
2023-01-11T10:35:55.070Z,4.62
2023-01-11T10:36:55.084Z,4.70
2023-01-11T10:37:55.105Z,4.66
2023-01-11T10:38:55.118Z,4.70
2023-01-11T10:39:55.107Z,4.63
2023-01-11T10:40:55.108Z,4.72
2023-01-11T10:41:55.113Z,4.72
2023-01-11T10:42:55.118Z,4.67
2023-01-11T10:43:55.171Z,4.60
2023-01-11T10:44:55.140Z,4.75
2023-01-11T10:45:55.238Z,4.67
2023-01-11T10:46:55.159Z,4.62
2023-01-11T10:47:55.164Z,4.50
2023-01-11T10:48:55.161Z,4.45
2023-01-11T10:49:55.178Z,4.33
2023-01-11T10:50:55.182Z,4.33
2023-01-11T10:51:55.191Z,4.24
2023-01-11T10:52:55.195Z,4.24
2023-01-11T10:53:55.244Z,4.23
2023-01-11T10:54:55.213Z,4.22
2023-01-11T10:55:55.232Z,4.23
2023-01-11T10:57:01.863Z,4.23
2023-01-11T10:58:00.761Z,4.24
2023-01-11T10:58:55.236Z,4.27
2023-01-11T10:59:55.249Z,4.26
2023-01-11T11:00:55.270Z,4.26
2023-01-11T11:01:55.421Z,4.34
2023-01-11T11:02:55.265Z,4.37
2023-01-11T11:03:55.285Z,4.37
2023-01-11T11:04:55.280Z,4.37
2023-01-11T11:05:55.317Z,4.40
2023-01-11T11:06:55.299Z,4.34
2023-01-11T11:07:55.304Z,4.41
2023-01-11T11:08:55.311Z,4.48
2023-01-11T11:09:55.424Z,4.51
2023-01-11T11:10:55.330Z,4.51
2023-01-11T11:11:55.332Z,4.59
2023-01-11T11:12:55.338Z,4.55
2023-01-11T11:13:55.350Z,4.51
2023-01-11T11:14:55.356Z,4.63
2023-01-11T11:15:55.513Z,4.59
2023-01-11T11:16:55.402Z,4.66
2023-01-11T11:17:55.379Z,4.54
2023-01-11T11:18:55.380Z,4.52
2023-01-11T11:19:55.391Z,4.50
2023-01-11T11:20:55.397Z,4.42
2023-01-11T11:21:55.407Z,4.36
2023-01-11T11:22:55.411Z,4.34
2023-01-11T11:23:55.426Z,4.27
2023-01-11T11:24:55.429Z,4.26
2023-01-11T11:25:55.459Z,4.23
2023-01-11T11:26:55.494Z,4.27
2023-01-11T11:27:55.450Z,4.23
2023-01-11T11:28:55.454Z,4.26
2023-01-11T11:29:55.466Z,4.23
2023-01-11T11:30:55.472Z,4.23
2023-01-11T11:31:55.530Z,4.24
2023-01-11T11:32:55.506Z,4.29
2023-01-11T11:33:55.493Z,4.26
2023-01-11T11:34:55.496Z,4.40
2023-01-11T11:35:55.510Z,4.34
2023-01-11T11:36:55.511Z,4.27
2023-01-11T11:37:55.530Z,4.30
2023-01-11T11:38:55.746Z,4.37
2023-01-11T11:39:55.544Z,4.36
2023-01-11T11:40:55.568Z,4.40
2023-01-11T11:41:55.580Z,4.37
2023-01-11T11:42:55.560Z,4.29
2023-01-11T11:43:55.568Z,4.32
2023-01-11T11:44:55.569Z,4.33
2023-01-11T11:45:55.673Z,4.32
2023-01-11T11:46:55.583Z,4.33
2023-01-11T11:47:55.594Z,4.30
2023-01-11T11:48:55.595Z,4.44
2023-01-11T11:49:55.613Z,4.48
2023-01-11T11:50:55.623Z,4.50
2023-01-11T11:51:55.635Z,4.59
2023-01-11T11:52:55.637Z,4.75
2023-01-11T11:53:55.643Z,4.67
2023-01-11T11:54:55.641Z,4.70
2023-01-11T11:55:55.649Z,4.70
2023-01-11T11:56:55.658Z,4.78
2023-01-11T11:57:55.717Z,4.73
2023-01-11T11:58:55.687Z,4.92
2023-01-11T11:59:55.681Z,4.89
2023-01-11T12:00:55.684Z,4.85
2023-01-11T12:01:55.745Z,4.96
2023-01-11T12:02:55.699Z,4.89
2023-01-11T12:03:55.741Z,4.99
2023-01-11T12:04:55.767Z,4.99
2023-01-11T12:05:55.743Z,5.03
2023-01-11T12:06:55.730Z,4.91
2023-01-11T12:07:55.966Z,4.97
2023-01-11T12:08:55.747Z,4.92
2023-01-11T12:09:55.758Z,4.91
2023-01-11T12:10:55.764Z,5.02
2023-01-11T12:11:55.772Z,4.92
2023-01-11T12:12:55.776Z,4.97
2023-01-11T12:13:55.823Z,5.02
2023-01-11T12:14:55.790Z,4.99
2023-01-11T12:15:55.804Z,5.02
2023-01-11T12:16:55.861Z,5.03
2023-01-11T12:17:55.818Z,5.10
2023-01-11T12:18:55.823Z,5.09
2023-01-11T12:19:55.830Z,5.09
2023-01-11T12:20:55.857Z,5.03
2023-01-11T12:21:55.848Z,5.12
2023-01-11T12:22:55.861Z,5.10
2023-01-11T12:23:55.869Z,5.13
2023-01-11T12:24:55.865Z,5.06
2023-01-11T12:25:55.880Z,5.04
2023-01-11T12:26:55.899Z,5.06
2023-01-11T12:27:55.896Z,5.06
2023-01-11T12:28:55.899Z,5.02
2023-01-11T12:29:55.946Z,5.09
2023-01-11T12:30:55.964Z,5.07
2023-01-11T12:31:55.937Z,5.07
2023-01-11T12:32:55.931Z,5.07
2023-01-11T12:33:55.986Z,5.10
2023-01-11T12:34:55.947Z,5.06
2023-01-11T12:35:55.999Z,5.12
2023-01-11T12:36:55.966Z,5.04
2023-01-11T12:37:55.972Z,5.07
2023-01-11T12:38:55.986Z,5.06
2023-01-11T12:39:56.000Z,5.07
2023-01-11T12:40:55.993Z,4.97
2023-01-11T12:41:56.013Z,4.92
2023-01-11T12:42:56.023Z,4.94
2023-01-11T12:43:56.024Z,4.75
2023-01-11T12:44:56.025Z,4.72
2023-01-11T12:45:56.089Z,4.69
2023-01-11T12:46:56.041Z,4.72
2023-01-11T12:47:56.051Z,4.72
2023-01-11T12:48:56.057Z,4.52
2023-01-11T12:49:56.078Z,4.52
2023-01-11T12:50:56.073Z,4.66
2023-01-11T12:51:56.085Z,4.50
2023-01-11T12:52:56.086Z,4.52
2023-01-11T12:53:56.103Z,4.42
2023-01-11T12:54:56.106Z,4.47
2023-01-11T12:55:56.121Z,4.47
2023-01-11T12:56:56.119Z,4.34
2023-01-11T12:57:56.128Z,4.34
2023-01-11T12:58:56.143Z,4.44
2023-01-11T12:59:56.143Z,4.36
2023-01-11T13:00:56.212Z,4.24
2023-01-11T13:01:56.192Z,4.26
2023-01-11T13:02:56.268Z,4.26
2023-01-11T13:03:56.185Z,4.18
2023-01-11T13:04:56.179Z,4.22
2023-01-11T13:05:56.202Z,4.26
2023-01-11T13:06:56.192Z,4.22
2023-01-11T13:07:56.203Z,4.22
2023-01-11T13:08:56.251Z,4.24
2023-01-11T13:09:56.219Z,4.26
2023-01-11T13:10:56.229Z,4.27
2023-01-11T13:11:56.234Z,4.24
2023-01-11T13:12:56.239Z,4.24
2023-01-11T13:13:56.253Z,4.26
2023-01-11T13:14:56.251Z,4.30
2023-01-11T13:15:56.265Z,4.42
2023-01-11T13:16:56.320Z,4.33
2023-01-11T13:17:56.304Z,4.37
2023-01-11T13:18:56.280Z,4.34
2023-01-11T13:19:56.289Z,4.34
2023-01-11T13:21:01.732Z,4.34
2023-01-11T13:21:56.313Z,4.45
2023-01-11T13:22:56.319Z,4.34
2023-01-11T13:23:56.320Z,4.37
2023-01-11T13:24:56.324Z,4.42
2023-01-11T13:25:56.334Z,4.30